• Join FlightAware (Why Join?)
  • Login
  • US Flag 
Trick or treat! (Boo!!) 
04:46AM EDT


 

Airport Tracker/Info


-or-


 

Live Flight TrackerFlight Track Log ✈ CTL337 ✈ 29-Apr-2013 ✈ KBKL - KOSU

Flight Track Log - Related Links

Times and Time Zones

All times are in EDT time to prevent confusion due to time zone crossing. See the CTL337 flight status page for this flight to view local times or setup timezone preferences in your user account.

Time Position Orientation Groundspeed Altitude Reporting Facility
EDT Latitude Longitude Course Direction KTS MPH feet Rate Location/Type
10:02PM 41.5233 -81.6703 347° North 89 102 1,000  Level Cleveland Center
10:03PM 41.5419 -81.6761 347° North 106 122 1,600 840 Climbing Cleveland Center
10:04PM 41.5583 -81.6986 314° West 106 122 2,400 720 Climbing Cleveland Center
10:05PM 41.5581 -81.7375 269° West 106 122 3,100 660 Climbing Cleveland Center
10:06PM 41.5347 -81.7675 224° Southwest 103 119 3,800 660 Climbing Cleveland Center
10:07PM 41.5094 -81.7919 216° Southwest 104 120 4,500 720 Climbing Cleveland Center
10:08PM 41.4844 -81.8139 213° Southwest 107 123 5,400 780 Climbing Cleveland Center
10:08PM 41.4633 -81.8356 218° Southwest 115 132 6,000 360 Climbing Cleveland Center
10:09PM 41.4339 -81.8628 215° Southwest 146 168 6,100  Climbing Cleveland Center
10:10PM 41.3978 -81.8981 216° Southwest 159 183 6,100  Level Cleveland Center
10:11PM 41.3600 -81.9275 210° Southwest 154 177 6,200  Climbing Cleveland Center
10:13PM 41.3222 -81.9628 215° Southwest 156 180 6,200 -60 Level Cleveland Center
10:14PM 41.2864 -81.9953 214° Southwest 157 181 6,100  Descending Cleveland Center
10:15PM 41.2483 -82.0303 215° Southwest 158 182 6,200  Climbing Cleveland Center
10:15PM 41.2167 -82.0600 215° Southwest 159 183 6,200  Level Cleveland Center
10:17PM 41.1561 -82.1119 213° Southwest 158 182 6,200 -60 Level Indianapolis Center
10:18PM 41.1192 -82.1453 214° Southwest 158 182 6,100 -60 Descending Indianapolis Center
10:19PM 41.0806 -82.1769 212° Southwest 161 185 6,100  Level Indianapolis Center
10:20PM 41.0425 -82.2075 211° Southwest 159 183 6,100  Level Indianapolis Center
10:21PM 41.0036 -82.2408 213° Southwest 162 186 6,100  Level Indianapolis Center
10:22PM 40.9692 -82.2772 219° Southwest 160 184 6,200 -480 Climbing Indianapolis Center
10:23PM 40.9597 -82.3500 260° West 170 196 5,200 -1,020 Descending Indianapolis Center
10:24PM 40.9503 -82.4158 259° West 178 205 4,200 -1,020 Descending Indianapolis Center
10:25PM 40.9456 -82.4806 265° West 176 203 3,200 -600 Descending Indianapolis Center
10:26PM 40.9389 -82.5375 261° West 167 192 3,000  Descending Indianapolis Center
10:27PM 40.9383 -82.5806 269° West 133 153 3,200  Climbing Indianapolis Center
10:28PM 40.9481 -82.6239 287° West 123 142 3,000 -120 Descending Indianapolis Center
10:29PM 40.9339 -82.6572 241° Southwest 122 140 3,000  Level Indianapolis Center
10:30PM 40.9058 -82.6425 158° South 117 135 3,100 60 Climbing Indianapolis Center
10:31PM 40.8817 -82.6200 145° Southeast 111 128 3,200 -300 Climbing Indianapolis Center
10:33PM 40.8633 -82.5792 121° Southeast 122 140 2,600 -720 Descending Indianapolis Center
10:34PM 40.8414 -82.5456 131° Southeast 123 142 1,800 -420 Descending Indianapolis Center
10:35PM 40.8228 -82.5156 129° Southeast 116 133 1,800 -60 Level Indianapolis Center
10:36PM 40.8183 -82.4878 102° East 122 140 1,700 240 Descending Indianapolis Center
10:38PM 40.7931 -82.5456 240° Southwest 92 106 2,600 600 Climbing Indianapolis Center
10:39PM 40.7675 -82.5644 209° Southwest 104 120 3,700 960 Climbing Indianapolis Center
10:40PM 40.7381 -82.5856 209° Southwest 115 132 4,600 780 Climbing Indianapolis Center
10:41PM 40.7075 -82.6086 210° Southwest 124 143 5,300 780 Climbing Indianapolis Center
10:42PM 40.6772 -82.6322 211° Southwest 125 144 6,200 360 Climbing Indianapolis Center
10:43PM 40.6425 -82.6572 209° Southwest 137 158 6,100 -60 Descending Indianapolis Center
10:44PM 40.6014 -82.6850 207° Southwest 158 182 6,100  Level Indianapolis Center
10:45PM 40.5614 -82.7133 208° Southwest 163 188 6,100  Level Indianapolis Center
10:46PM 40.5231 -82.7433 211° Southwest 160 184 6,100  Level Indianapolis Center
10:47PM 40.4842 -82.7722 209° Southwest 160 184 6,100  Level Indianapolis Center
10:48PM 40.4503 -82.8164 225° Southwest 160 184 6,100 -60 Level Indianapolis Center
10:49PM 40.4167 -82.8508 218° Southwest 155 178 6,000 -540 Descending Indianapolis Center
10:50PM 40.3719 -82.8922 215° Southwest 173 199 5,000 -720 Descending Indianapolis Center
10:51PM 40.3406 -82.9242 218° Southwest 162 186 4,600 -420 Descending Indianapolis Center
10:52PM 40.3156 -82.9542 222° Southwest 122 140 4,300 -360 Descending Indianapolis Center
10:52PM 40.3097 -82.9572 202° Southwest 134 154 4,200  Descending Indianapolis Center
10:53PM 40.2956 -82.9739 222° Southwest 70 81 4,300 -120 Climbing Indianapolis Center
10:53PM 40.2917 -82.9761 204° Southwest 102 117 4,100 -300 Descending Indianapolis Center
10:54PM 40.2664 -83.0006 216° Southwest 138 159 4,000 -540 Descending Indianapolis Center
10:55PM 40.2306 -83.0372 218° Southwest 157 181 3,200 -360 Descending Indianapolis Center
10:56PM 40.1969 -83.0689 216° Southwest 136 157 3,300 -60 Climbing Indianapolis Center
10:57PM 40.1603 -83.1025 215° Southwest 145 167 3,100 -60 Descending Indianapolis Center
10:58PM 40.1319 -83.1294 216° Southwest 131 151 3,200  Climbing Indianapolis Center
10:59PM 40.1069 -83.1592 222° Southwest 130 150 3,100 -60 Descending Indianapolis Center
11:00PM 40.0775 -83.1886 217° Southwest 134 154 3,100  Level Indianapolis Center
11:01PM 40.0700 -83.2394 259° West 150 173 3,100  Level Indianapolis Center
11:02PM 40.0800 -83.2733 291° West 151 174 3,200 60 Climbing Indianapolis Center
11:02PM 40.0836 -83.2611 69° East 160 184 3,200 -240 Level Indianapolis Center
11:03PM 40.0722 -83.2342 119° Southeast 141 162 3,000 -240 Descending Indianapolis Center
11:03PM 40.0719 -83.2150 91° East 141 162 3,000 -300 Level Indianapolis Center
11:04PM 40.0733 -83.1908 86° East 109 125 2,700 -600 Descending Indianapolis Center
11:04PM 40.0739 -83.1733 88° East 124 143 2,400 -720 Descending Indianapolis Center
11:05PM 40.0742 -83.1500 89° East 108 124 2,000 -600 Descending Indianapolis Center
11:05PM 40.0756 -83.1325 84° East 116 133 1,800 -540 Descending Indianapolis Center
11:06PM 40.0750 -83.1064 92° East 106 122 1,400 -600 Descending Indianapolis Center
11:06PM 40.0767 -83.0942 80° East 109 125 1,200 -120 Descending Indianapolis Center
11:07PM 40.0778 -83.0658 87° East 104 120 1,300 240 Climbing Indianapolis Center
11:07PM 40.0792 -83.0558 80° East 107 123 1,500 720 Climbing Indianapolis Center
11:08PM 40.0997 -83.0494 13° North 123 142 2,000 780 Climbing Indianapolis Center